createdAt,value
2023-04-04T00:00:11.383Z,4.5
2023-04-04T00:05:17.588Z,4.4
2023-04-04T00:10:23.783Z,4.3
2023-04-04T00:15:29.029Z,4.3
2023-04-04T00:20:35.231Z,4.2
2023-04-04T00:25:40.466Z,4.1
2023-04-04T00:30:46.735Z,4.1
2023-04-04T00:35:52.892Z,4.0
2023-04-04T00:40:59.089Z,3.9
2023-04-04T00:46:05.360Z,3.9
2023-04-04T00:51:11.508Z,3.8
2023-04-04T00:56:17.710Z,3.8
2023-04-04T01:01:23.957Z,3.8
2023-04-04T01:06:30.131Z,3.7
2023-04-04T01:11:36.328Z,3.6
2023-04-04T01:16:42.567Z,3.6
2023-04-04T01:21:48.741Z,3.5
2023-04-04T01:26:54.950Z,3.5
2023-04-04T01:32:01.151Z,3.4
2023-04-04T01:37:07.359Z,3.4
2023-04-04T01:42:13.607Z,3.3
2023-04-04T01:47:19.784Z,3.3
2023-04-04T01:52:25.985Z,3.2
2023-04-04T01:57:32.195Z,3.2
2023-04-04T02:02:38.467Z,3.1
2023-04-04T02:07:44.612Z,3.0
2023-04-04T02:12:50.872Z,3.0
2023-04-04T02:17:56.064Z,2.9
2023-04-04T02:23:02.261Z,2.9
2023-04-04T02:28:08.463Z,2.8
2023-04-04T02:33:14.676Z,2.8
2023-04-04T02:38:20.874Z,2.7
2023-04-04T02:43:27.092Z,2.7
2023-04-04T02:48:33.305Z,2.6
2023-04-04T02:53:39.518Z,2.6
2023-04-04T02:58:45.840Z,2.6
2023-04-04T03:03:52.227Z,2.5
2023-04-04T03:08:58.139Z,2.5
2023-04-04T03:14:04.349Z,2.5
2023-04-04T03:19:10.551Z,2.4
2023-04-04T03:24:16.761Z,2.4
2023-04-04T03:29:22.966Z,2.4
2023-04-04T03:34:29.176Z,2.3
2023-04-04T03:39:35.384Z,2.3
2023-04-04T03:44:41.594Z,2.3
2023-04-04T03:49:47.890Z,2.3
2023-04-04T03:54:54.001Z,2.3
2023-04-04T04:00:00.230Z,2.2
2023-04-04T04:05:05.455Z,2.2
2023-04-04T04:10:11.653Z,2.2
2023-04-04T04:15:16.884Z,2.1
2023-04-04T04:20:23.090Z,2.1
2023-04-04T04:25:29.297Z,2.1
2023-04-04T04:30:34.551Z,2.0
2023-04-04T04:35:40.771Z,2.0
2023-04-04T04:40:46.946Z,2.0
2023-04-04T04:45:53.159Z,1.9
2023-04-04T04:50:59.361Z,1.9
2023-04-04T04:56:04.597Z,1.9
2023-04-04T05:01:10.816Z,1.8
2023-04-04T05:06:16.998Z,1.8
2023-04-04T05:11:23.207Z,1.8
2023-04-04T05:16:29.441Z,1.7
2023-04-04T05:21:35.633Z,1.7
2023-04-04T05:26:41.824Z,1.7
2023-04-04T05:31:48.043Z,1.7
2023-04-04T05:36:54.244Z,1.7
2023-04-04T05:42:00.463Z,1.6
2023-04-04T05:47:06.659Z,1.6
2023-04-04T05:52:12.860Z,1.7
2023-04-04T05:57:19.072Z,1.7
2023-04-04T06:02:25.365Z,1.7
2023-04-04T06:07:31.492Z,1.7
2023-04-04T06:12:37.703Z,1.8
2023-04-04T06:17:42.959Z,1.9
2023-04-04T06:22:49.133Z,2.0
2023-04-04T06:27:55.336Z,2.2
2023-04-04T06:38:06.831Z,2.6
2023-04-04T06:43:12.025Z,2.9
2023-04-04T06:48:18.221Z,3.2
2023-04-04T06:53:24.435Z,3.5
2023-04-04T06:58:30.634Z,3.8
2023-04-04T07:03:36.869Z,4.2
2023-04-04T07:08:43.067Z,4.6
2023-04-04T07:13:49.287Z,4.9
2023-04-04T07:18:55.602Z,5.2
2023-04-04T07:24:01.678Z,5.5
2023-04-04T07:29:07.927Z,5.8
2023-04-04T07:34:14.089Z,6.0
2023-04-04T07:39:20.295Z,6.3
2023-04-04T07:44:26.506Z,6.6
2023-04-04T07:49:32.772Z,6.9
2023-04-04T07:54:38.919Z,7.1
2023-04-04T07:59:45.121Z,7.4
2023-04-04T08:04:51.353Z,7.5
2023-04-04T08:09:57.578Z,7.7
2023-04-04T08:15:03.860Z,7.9
2023-04-04T08:20:10.043Z,8.1
2023-04-04T08:25:16.195Z,8.2
2023-04-04T08:30:21.400Z,8.4
2023-04-04T08:35:27.643Z,8.6
2023-04-04T08:40:33.850Z,8.8
2023-04-04T08:45:39.048Z,9.0
2023-04-04T08:50:45.281Z,9.2
2023-04-04T08:55:51.465Z,9.4
2023-04-04T09:00:57.836Z,9.5
2023-04-04T09:06:03.884Z,9.6
2023-04-04T09:11:10.090Z,9.8
2023-04-04T09:16:16.334Z,9.9
2023-04-04T09:21:22.524Z,10.0
2023-04-04T09:26:28.715Z,10.1
2023-04-04T09:31:34.938Z,10.1
2023-04-04T09:36:41.126Z,10.2
2023-04-04T09:41:47.341Z,10.3
2023-04-04T09:46:53.548Z,10.5
2023-04-04T09:51:59.758Z,10.7
2023-04-04T09:57:05.966Z,10.8
2023-04-04T10:02:12.168Z,10.9
2023-04-04T10:07:18.378Z,11.0
2023-04-04T10:12:24.577Z,11.0
2023-04-04T10:17:30.798Z,11.2
2023-04-04T10:22:37.047Z,11.3
2023-04-04T10:27:42.230Z,11.3
2023-04-04T10:32:48.496Z,11.3
2023-04-04T10:37:53.684Z,11.4
2023-04-04T10:42:59.883Z,11.5
2023-04-04T10:48:07.531Z,11.6
2023-04-04T10:53:12.302Z,11.6
2023-04-04T10:58:18.519Z,11.7
2023-04-04T11:03:24.722Z,11.7
2023-04-04T11:08:30.932Z,11.8
2023-04-04T11:13:37.152Z,11.9
2023-04-04T11:18:43.632Z,11.9
2023-04-04T11:23:49.671Z,12.0
2023-04-04T11:28:55.817Z,12.0
2023-04-04T11:34:02.023Z,12.1
2023-04-04T11:39:08.198Z,12.1
2023-04-04T11:44:14.392Z,12.2
2023-04-04T11:49:20.592Z,12.3
2023-04-04T11:54:26.800Z,12.3
2023-04-04T11:59:33.059Z,12.4
2023-04-04T12:04:41.151Z,12.5
2023-04-04T12:09:45.468Z,12.6
2023-04-04T12:14:51.636Z,12.7
2023-04-04T12:19:57.842Z,12.8
2023-04-04T12:25:03.087Z,12.8
2023-04-04T12:30:09.294Z,12.8
2023-04-04T12:35:14.533Z,12.9
2023-04-04T12:40:20.731Z,12.9
2023-04-04T12:45:26.951Z,13.0
2023-04-04T12:50:33.147Z,13.1
2023-04-04T12:55:39.465Z,13.3
2023-04-04T13:00:45.589Z,13.4
2023-04-04T13:05:51.790Z,13.4
2023-04-04T13:10:57.988Z,13.5
2023-04-04T13:16:04.193Z,13.5
2023-04-04T13:21:10.406Z,13.6
2023-04-04T13:26:16.648Z,13.6
2023-04-04T13:31:22.919Z,13.6
2023-04-04T13:36:29.077Z,13.7
2023-04-04T13:41:35.241Z,13.8
2023-04-04T13:46:41.466Z,13.8
2023-04-04T13:51:47.673Z,13.8
2023-04-04T13:56:55.437Z,13.9
2023-04-04T14:02:00.140Z,13.9
2023-04-04T14:07:06.316Z,13.9
2023-04-04T14:17:18.742Z,14.0
2023-04-04T14:22:23.981Z,14.0
2023-04-04T14:27:30.192Z,14.1
2023-04-04T14:32:35.455Z,14.1
2023-04-04T14:37:41.654Z,14.2
2023-04-04T14:42:47.880Z,14.2
2023-04-04T14:47:54.103Z,14.2
2023-04-04T14:53:00.282Z,14.2
2023-04-04T14:58:06.545Z,14.3
2023-04-04T15:03:12.750Z,14.3
2023-04-04T15:08:18.928Z,14.3
2023-04-04T15:13:25.143Z,14.3
2023-04-04T15:18:31.359Z,14.4
2023-04-04T15:23:37.595Z,14.5
2023-04-04T15:28:43.815Z,14.6
2023-04-04T15:33:50.005Z,14.6
2023-04-04T15:38:56.218Z,14.7
2023-04-04T15:44:02.437Z,14.8
2023-04-04T15:49:08.642Z,14.7
2023-04-04T15:54:14.842Z,14.7
2023-04-04T15:59:21.097Z,14.8
2023-04-04T16:04:27.308Z,14.8
2023-04-04T16:09:33.494Z,14.7
2023-04-04T16:14:39.680Z,14.6
2023-04-04T16:19:44.919Z,14.7
2023-04-04T16:24:51.131Z,14.6
2023-04-04T16:29:56.372Z,14.6
2023-04-04T16:35:02.597Z,14.5
2023-04-04T16:40:08.816Z,14.4
2023-04-04T16:45:15.017Z,14.3
2023-04-04T16:50:21.233Z,14.1
2023-04-04T16:55:27.445Z,14.0
2023-04-04T17:00:33.688Z,13.9
2023-04-04T17:05:39.890Z,13.7
2023-04-04T17:10:46.088Z,13.6
2023-04-04T17:15:52.402Z,13.4
2023-04-04T17:20:58.493Z,13.2
2023-04-04T17:26:04.706Z,13.1
2023-04-04T17:31:10.925Z,13.0
2023-04-04T17:36:17.139Z,12.8
2023-04-04T17:41:23.341Z,12.7
2023-04-04T17:46:29.614Z,12.6
2023-04-04T17:51:35.743Z,12.5
2023-04-04T17:56:41.954Z,12.4
2023-04-04T18:01:48.196Z,12.3
2023-04-04T18:06:54.388Z,12.2
2023-04-04T18:12:00.609Z,12.1
2023-04-04T18:17:06.148Z,12.0
2023-04-04T18:22:12.025Z,11.8
2023-04-04T18:27:17.257Z,11.7
2023-04-04T18:32:23.484Z,11.7
2023-04-04T18:37:29.679Z,11.6
2023-04-04T18:42:35.892Z,11.5
2023-04-04T18:47:42.134Z,11.4
2023-04-04T18:52:48.304Z,11.3
2023-04-04T18:57:54.513Z,11.2
2023-04-04T19:03:00.766Z,11.1
2023-04-04T19:08:06.933Z,11.0
2023-04-04T19:13:13.130Z,10.9
2023-04-04T19:18:19.347Z,10.8
2023-04-04T19:23:25.880Z,10.8
2023-04-04T19:28:31.783Z,10.6
2023-04-04T19:33:37.973Z,10.5
2023-04-04T19:38:44.207Z,10.4
2023-04-04T19:43:50.420Z,10.3
2023-04-04T19:48:56.589Z,10.2
2023-04-04T19:54:03.562Z,10.0
2023-04-04T19:59:10.854Z,9.9
2023-04-04T20:04:15.240Z,9.8
2023-04-04T20:09:21.423Z,9.6
2023-04-04T20:14:26.657Z,9.5
2023-04-04T20:19:32.861Z,9.4
2023-04-04T20:24:39.067Z,9.3
2023-04-04T20:29:45.277Z,9.2
2023-04-04T20:34:51.474Z,9.1
2023-04-04T20:39:57.693Z,9.0
2023-04-04T20:45:03.895Z,8.9
2023-04-04T20:50:10.111Z,8.8
2023-04-04T21:00:22.526Z,8.6
2023-04-04T21:05:28.736Z,8.5
2023-04-04T21:10:34.965Z,8.4
2023-04-04T21:15:41.166Z,8.4
2023-04-04T21:20:47.375Z,8.3
2023-04-04T21:25:53.570Z,8.2
2023-04-04T21:30:59.844Z,8.2
2023-04-04T21:36:06.060Z,8.1
2023-04-04T21:41:12.186Z,8.0
2023-04-04T21:46:18.428Z,7.9
2023-04-04T21:51:24.600Z,7.8
2023-04-04T21:56:30.813Z,7.7
2023-04-04T22:01:36.064Z,7.6
2023-04-04T22:06:41.300Z,7.5
2023-04-04T22:11:47.480Z,7.4
2023-04-04T22:16:53.682Z,7.3
2023-04-04T22:21:59.894Z,7.3
2023-04-04T22:27:06.150Z,7.2
2023-04-04T22:32:12.352Z,7.1
2023-04-04T22:37:18.531Z,7.0
2023-04-04T22:42:24.730Z,6.9
2023-04-04T22:47:30.979Z,6.9
2023-04-04T22:52:37.146Z,6.7
2023-04-04T22:57:43.350Z,6.6
2023-04-04T23:02:49.652Z,6.6
2023-04-04T23:07:55.765Z,6.5
2023-04-04T23:13:01.976Z,6.4
2023-04-04T23:18:08.212Z,6.3
2023-04-04T23:23:14.396Z,6.2
2023-04-04T23:28:20.594Z,6.1
2023-04-04T23:33:26.800Z,6.0
2023-04-04T23:38:33.024Z,5.8
2023-04-04T23:43:39.341Z,5.7
2023-04-04T23:48:45.426Z,5.6
2023-04-04T23:53:50.666Z,5.5
2023-04-04T23:58:56.932Z,5.4
